| Date | Time | Temp. (oF) | Dew Point (oF) | Rel. Hum. (%) | Press. (in.) | Wind Dir. | Wind Speed (mph) | Hourly Rainfall (in.) |
|
|---|---|---|---|---|---|---|---|---|---|
| 1 | 12/23 | 00:00 | 52 | 48 | 88 | 30.02 | SSW | 0 | 0.00 |
| 2 | 12/22 | 23:00 | 51 | 47 | 88 | 30.02 | S | 0 | 0.00 |
| 3 | 12/22 | 22:00 | 52 | 48 | 88 | 29.99 | W | 0 | 0.00 |
| 4 | 12/22 | 21:00 | 52 | 48 | 89 | 29.97 | S | 0 | 0.00 |
| 5 | 12/22 | 20:00 | 52 | 48 | 89 | 29.97 | S | 0 | 0.00 |
| 6 | 12/22 | 19:00 | 52 | 48 | 89 | 29.94 | SSW | 0 | 0.00 |
| 7 | 12/22 | 18:00 | 55 | 51 | 88 | 29.90 | SSE | 0 | 0.00 |
| 8 | 12/22 | 17:00 | 57 | 52 | 86 | 29.88 | SSW | 0 | 0.00 |
| 9 | 12/22 | 16:00 | 59 | 54 | 85 | 29.85 | SSW | 3 | 0.00 |
| 10 | miss | miss | miss | miss | miss | miss | miss | miss | |
| 11 | 12/22 | 13:34 | 56 | 52 | 88 | 29.83 | S | 4 | 0.00 |
| 12 | 12/22 | 13:00 | 55 | 51 | 88 | 29.83 | SSW | 5 | 0.00 |
| 13 | 12/22 | 12:00 | 54 | 50 | 88 | 29.84 | SSW | 6 | 0.00 |
| 14 | 12/22 | 11:00 | 53 | 49 | 89 | 29.87 | SSW | 4 | 0.00 |
| 15 | 12/22 | 10:00 | 52 | 48 | 89 | 29.90 | SSW | 7 | 0.00 |
| 16 | 12/22 | 09:00 | 51 | 47 | 89 | 29.91 | SW | 4 | 0.01 |
| 17 | 12/22 | 08:00 | 50 | 46 | 89 | 29.90 | SSW | 4 | 0.00 |
| 18 | 12/22 | 07:00 | 49 | 45 | 89 | 29.93 | S | 4 | 0.05 |
| 19 | 12/22 | 06:00 | 48 | 44 | 89 | 29.93 | S | 5 | 0.02 |
| 20 | 12/22 | 05:00 | 49 | 45 | 88 | 29.93 | ESE | 1 | 0.02 |
| 21 | 12/22 | 04:00 | 49 | 44 | 86 | 29.95 | SSW | 2 | 0.00 |
| 22 | 12/22 | 03:00 | 49 | 44 | 84 | 29.97 | SSW | 0 | 0.00 |
| 23 | 12/22 | 02:00 | 50 | 44 | 82 | 29.98 | E | 1 | 0.00 |
| 24 | 12/22 | 01:00 | 51 | 44 | 77 | 29.98 | SSW | 0 | 0.00 |